createdAt,value
2016-03-17T00:00:25.434Z,0
2016-03-17T00:01:25.387Z,0
2016-03-17T00:02:25.390Z,0
2016-03-17T00:03:25.408Z,0
2016-03-17T00:04:25.442Z,0
2016-03-17T00:05:25.461Z,0
2016-03-17T00:06:25.463Z,0
2016-03-17T00:07:25.341Z,0
2016-03-17T00:08:25.514Z,0
2016-03-17T00:09:25.517Z,0
2016-03-17T00:10:25.552Z,0
2016-03-17T00:11:25.538Z,0
2016-03-17T00:12:25.572Z,0
2016-03-17T00:13:25.591Z,0
2016-03-17T00:14:25.610Z,0
2016-03-17T00:15:25.612Z,0
2016-03-17T00:16:25.646Z,0
2016-03-17T00:17:25.649Z,0
2016-03-17T00:18:25.666Z,0
2016-03-17T00:19:25.670Z,0
2016-03-17T00:20:25.719Z,0
2016-03-17T00:21:25.722Z,0
2016-03-17T00:22:25.772Z,0
2016-03-17T00:23:25.727Z,0
2016-03-17T00:24:25.777Z,0
2016-03-17T00:25:25.765Z,0
2016-03-17T00:26:25.813Z,0
2016-03-17T00:27:25.815Z,0
2016-03-17T00:28:25.834Z,0
2016-03-17T00:29:25.837Z,0
2016-03-17T00:30:25.871Z,0
2016-03-17T00:31:25.874Z,0
2016-03-17T00:32:25.876Z,0
2016-03-17T00:33:25.911Z,0
2016-03-17T00:34:25.928Z,0
2016-03-17T00:35:25.947Z,0
2016-03-17T00:36:25.981Z,0
2016-03-17T00:37:25.968Z,0
2016-03-17T00:38:25.987Z,0
2016-03-17T00:39:26.036Z,0
2016-03-17T00:40:26.039Z,0
2016-03-17T00:41:26.025Z,0
2016-03-17T00:42:26.060Z,0
2016-03-17T00:43:26.077Z,0
2016-03-17T00:44:26.096Z,0
2016-03-17T00:45:26.108Z,0
2016-03-17T00:46:26.125Z,0
2016-03-17T00:47:26.144Z,0
2016-03-17T00:48:26.178Z,0
2016-03-17T00:49:26.165Z,0
2016-03-17T00:50:26.168Z,0
2016-03-17T00:51:26.202Z,0
2016-03-17T00:52:26.220Z,0
2016-03-17T00:53:26.239Z,0
2016-03-17T00:54:26.272Z,0
2016-03-17T00:55:26.260Z,0
2016-03-17T00:56:26.294Z,0
2016-03-17T00:57:26.297Z,0
2016-03-17T00:58:26.314Z,0
2016-03-17T00:59:26.333Z,0
2016-03-17T01:00:26.352Z,0
2016-03-17T01:01:26.369Z,0
2016-03-17T01:02:26.388Z,0
2016-03-17T01:03:26.407Z,0
2016-03-17T01:04:26.424Z,0
2016-03-17T01:05:26.427Z,0
2016-03-17T01:06:26.290Z,0
2016-03-17T01:07:26.459Z,0
2016-03-17T01:08:26.477Z,0
2016-03-17T01:09:26.480Z,0
2016-03-17T01:10:26.498Z,0
2016-03-17T01:11:26.532Z,0
2016-03-17T01:12:26.551Z,0
2016-03-17T01:13:26.554Z,0
2016-03-17T01:14:26.571Z,0
2016-03-17T01:15:26.621Z,0
2016-03-17T01:16:26.608Z,0
2016-03-17T01:17:26.502Z,0
2016-03-17T01:18:26.645Z,0
2016-03-17T01:19:26.679Z,0
2016-03-17T01:20:26.635Z,0
2016-03-17T01:21:26.684Z,0
2016-03-17T01:22:26.703Z,0
2016-03-17T01:23:26.705Z,0
2016-03-17T01:24:26.739Z,0
2016-03-17T01:25:26.742Z,0
2016-03-17T01:26:26.761Z,0
2016-03-17T01:27:26.778Z,0
2016-03-17T01:28:26.797Z,0
2016-03-17T01:29:26.815Z,0
2016-03-17T01:30:26.817Z,0
2016-03-17T01:31:26.852Z,0
2016-03-17T01:32:26.869Z,0
2016-03-17T01:33:26.872Z,0
2016-03-17T01:34:26.891Z,0
2016-03-17T01:35:26.909Z,0
2016-03-17T01:36:26.927Z,0
2016-03-17T01:37:33.196Z,0
2016-03-17T01:38:26.964Z,0
2016-03-17T01:39:26.967Z,0
2016-03-17T01:40:26.986Z,0
2016-03-17T01:41:27.019Z,0
2016-03-17T01:42:27.022Z,0
2016-03-17T01:43:27.041Z,0
2016-03-17T01:44:27.059Z,0
2016-03-17T01:45:27.062Z,0
2016-03-17T01:46:27.080Z,0
2016-03-17T01:47:27.098Z,0
2016-03-17T01:48:27.116Z,0
2016-03-17T01:49:27.150Z,0
2016-03-17T01:50:27.137Z,0
2016-03-17T01:51:27.156Z,0
2016-03-17T01:52:27.174Z,0
2016-03-17T01:53:27.193Z,0
2016-03-17T01:54:27.211Z,0
2016-03-17T01:55:27.229Z,0
2016-03-17T01:56:27.248Z,0
2016-03-17T01:57:27.250Z,0
2016-03-17T01:58:27.268Z,0
2016-03-17T01:59:27.286Z,0
2016-03-17T02:00:27.306Z,0
2016-03-17T02:01:27.323Z,0
2016-03-17T02:02:27.389Z,0
2016-03-17T02:03:27.360Z,0
2016-03-17T02:04:27.378Z,0
2016-03-17T02:05:27.380Z,0
2016-03-17T02:06:27.399Z,0
2016-03-17T02:07:27.402Z,0
2016-03-17T02:08:27.435Z,0
2016-03-17T02:09:27.454Z,0
2016-03-17T02:10:27.457Z,0
2016-03-17T02:11:27.491Z,0
2016-03-17T02:12:27.493Z,0
2016-03-17T02:13:27.513Z,0
2016-03-17T02:14:27.530Z,0
2016-03-17T02:15:27.549Z,0
2016-03-17T02:16:27.567Z,0
2016-03-17T02:17:27.585Z,0
2016-03-17T02:18:27.635Z,0
2016-03-17T02:19:27.606Z,0
2016-03-17T02:20:27.624Z,0
2016-03-17T02:21:27.643Z,0
2016-03-17T02:22:27.645Z,0
2016-03-17T02:23:27.665Z,0
2016-03-17T02:24:27.682Z,0
2016-03-17T02:25:27.716Z,0
2016-03-17T02:26:27.704Z,0
2016-03-17T02:27:27.721Z,0
2016-03-17T02:28:27.756Z,0
2016-03-17T02:29:27.758Z,0
2016-03-17T02:30:27.776Z,0
2016-03-17T02:31:27.639Z,0
2016-03-17T02:32:27.814Z,0
2016-03-17T02:33:27.831Z,0
2016-03-17T02:34:27.834Z,0
2016-03-17T02:35:27.852Z,0
2016-03-17T02:36:27.855Z,0
2016-03-17T02:37:27.873Z,0
2016-03-17T02:38:27.908Z,0
2016-03-17T02:39:27.926Z,0
2016-03-17T02:40:27.928Z,0
2016-03-17T02:41:27.947Z,0
2016-03-17T02:42:27.965Z,0
2016-03-17T02:43:27.968Z,0
2016-03-17T02:44:27.971Z,0
2016-03-17T02:45:28.019Z,0
2016-03-17T02:46:28.022Z,0
2016-03-17T02:47:28.104Z,0
2016-03-17T02:48:27.888Z,0
2016-03-17T02:49:28.077Z,0
2016-03-17T02:50:28.096Z,0
2016-03-17T02:51:28.099Z,0
2016-03-17T02:52:28.117Z,0
2016-03-17T02:53:28.136Z,0
2016-03-17T02:54:28.138Z,0
2016-03-17T02:55:28.157Z,0
2016-03-17T02:56:28.174Z,0
2016-03-17T02:57:28.209Z,0
2016-03-17T02:58:28.226Z,0
2016-03-17T02:59:28.230Z,0
2016-03-17T03:00:28.232Z,0
2016-03-17T03:01:28.250Z,0
2016-03-17T03:02:28.378Z,0
2016-03-17T03:03:28.287Z,0
2016-03-17T03:04:28.290Z,0
2016-03-17T03:05:28.309Z,0
2016-03-17T03:06:28.342Z,0
2016-03-17T03:07:28.361Z,0
2016-03-17T03:08:28.379Z,0
2016-03-17T03:09:28.367Z,0
2016-03-17T03:10:28.383Z,0
2016-03-17T03:11:28.418Z,0
2016-03-17T03:12:28.421Z,0
2016-03-17T03:13:28.470Z,0
2016-03-17T03:14:28.472Z,0
2016-03-17T03:15:28.460Z,0
2016-03-17T03:16:28.477Z,0
2016-03-17T03:17:28.590Z,0
2016-03-17T03:18:28.515Z,0
2016-03-17T03:19:28.518Z,0
2016-03-17T03:20:28.551Z,0
2016-03-17T03:21:28.585Z,0
2016-03-17T03:22:28.573Z,0
2016-03-17T03:23:28.591Z,0
2016-03-17T03:24:28.610Z,0
2016-03-17T03:25:28.628Z,0
2016-03-17T03:26:28.630Z,0
2016-03-17T03:27:28.665Z,0
2016-03-17T03:28:28.698Z,0
2016-03-17T03:29:28.685Z,0
2016-03-17T03:30:28.704Z,0
2016-03-17T03:31:28.706Z,0
2016-03-17T03:32:28.740Z,0
2016-03-17T03:33:28.742Z,0
2016-03-17T03:34:28.605Z,0
2016-03-17T03:35:28.779Z,0
2016-03-17T03:36:28.798Z,0
2016-03-17T03:37:28.817Z,0
2016-03-17T03:38:28.822Z,0
2016-03-17T03:39:28.828Z,0
2016-03-17T03:40:28.819Z,0
2016-03-17T03:41:28.825Z,0
2016-03-17T03:42:28.815Z,0
2016-03-17T03:43:28.829Z,0
2016-03-17T03:44:28.858Z,0
2016-03-17T03:45:28.873Z,0
2016-03-17T03:46:28.871Z,0
2016-03-17T03:47:28.885Z,0
2016-03-17T03:48:28.887Z,0
2016-03-17T03:49:28.903Z,0
2016-03-17T03:50:28.951Z,0
2016-03-17T03:51:28.952Z,0
2016-03-17T03:52:28.954Z,0
2016-03-17T03:53:28.956Z,0
2016-03-17T03:54:28.974Z,0
2016-03-17T03:55:28.990Z,0
2016-03-17T03:56:29.009Z,0
2016-03-17T03:57:29.026Z,0
2016-03-17T03:58:29.029Z,0
2016-03-17T03:59:29.047Z,0
2016-03-17T04:00:29.066Z,0
2016-03-17T04:01:29.084Z,0
2016-03-17T04:02:29.102Z,0
2016-03-17T04:03:29.120Z,0
2016-03-17T04:04:29.123Z,0
2016-03-17T04:05:29.140Z,0
2016-03-17T04:06:29.175Z,0
2016-03-17T04:07:29.178Z,0
2016-03-17T04:08:29.180Z,0
2016-03-17T04:09:29.198Z,0
2016-03-17T04:10:29.217Z,0
2016-03-17T04:11:29.376Z,0
2016-03-17T04:12:29.254Z,0
2016-03-17T04:13:29.272Z,0
2016-03-17T04:14:29.275Z,0
2016-03-17T04:15:29.293Z,0
2016-03-17T04:16:29.311Z,0
2016-03-17T04:17:29.314Z,0
2016-03-17T04:18:29.364Z,0
2016-03-17T04:19:29.366Z,0
2016-03-17T04:20:29.369Z,0
2016-03-17T04:21:29.387Z,0
2016-03-17T04:22:29.405Z,0
2016-03-17T04:23:29.424Z,0
2016-03-17T04:24:29.427Z,0
2016-03-17T04:25:29.445Z,0
2016-03-17T04:26:29.463Z,0
2016-03-17T04:27:29.482Z,0
2016-03-17T04:28:29.500Z,0
2016-03-17T04:29:29.503Z,0
2016-03-17T04:30:29.521Z,0
2016-03-17T04:31:29.540Z,0
2016-03-17T04:32:29.557Z,0
2016-03-17T04:33:29.560Z,0
2016-03-17T04:34:29.578Z,0
2016-03-17T04:35:29.596Z,0
2016-03-17T04:36:29.615Z,0
2016-03-17T04:37:29.633Z,0
2016-03-17T04:38:29.636Z,0
2016-03-17T04:39:29.670Z,0
2016-03-17T04:40:29.673Z,0
2016-03-17T04:41:29.676Z,0
2016-03-17T04:42:29.710Z,0
2016-03-17T04:43:29.728Z,0
2016-03-17T04:44:29.746Z,0
2016-03-17T04:45:29.748Z,0
2016-03-17T04:46:29.783Z,0
2016-03-17T04:47:29.770Z,0
2016-03-17T04:48:29.789Z,0
2016-03-17T04:49:29.822Z,0
2016-03-17T04:50:29.825Z,0
2016-03-17T04:51:29.843Z,0
2016-03-17T04:52:29.861Z,0
2016-03-17T04:53:29.879Z,0
2016-03-17T04:54:29.897Z,0
2016-03-17T04:55:29.916Z,0
2016-03-17T04:56:29.935Z,0
2016-03-17T04:57:29.937Z,0
2016-03-17T04:58:29.206Z,0
2016-03-17T04:59:29.958Z,4
2016-03-17T05:00:29.977Z,4
2016-03-17T05:01:30.010Z,0
2016-03-17T05:02:30.013Z,0
2016-03-17T05:03:30.016Z,4
2016-03-17T05:04:30.049Z,0
2016-03-17T05:05:30.052Z,4
2016-03-17T05:06:30.071Z,4
2016-03-17T05:07:30.073Z,4
2016-03-17T05:08:30.107Z,8
2016-03-17T05:09:30.109Z,4
2016-03-17T05:10:30.128Z,8
2016-03-17T05:11:30.131Z,8
2016-03-17T05:12:30.165Z,12
2016-03-17T05:13:30.184Z,12
2016-03-17T05:14:30.202Z,12
2016-03-17T05:15:30.251Z,12
2016-03-17T05:16:30.222Z,16
2016-03-17T05:17:30.226Z,20
2016-03-17T05:18:30.244Z,20
2016-03-17T05:19:30.278Z,20
2016-03-17T05:20:30.311Z,24
2016-03-17T05:21:30.299Z,24
2016-03-17T05:22:30.317Z,28
2016-03-17T05:23:30.320Z,32
2016-03-17T05:24:30.339Z,32
2016-03-17T05:25:30.341Z,36
2016-03-17T05:26:30.375Z,40
2016-03-17T05:27:30.393Z,44
2016-03-17T05:28:30.396Z,48
2016-03-17T05:29:30.414Z,52
2016-03-17T05:30:30.432Z,56
2016-03-17T05:31:30.451Z,56
2016-03-17T05:32:30.468Z,60
2016-03-17T05:33:30.472Z,64
2016-03-17T05:34:30.505Z,68
2016-03-17T05:35:30.508Z,72
2016-03-17T05:36:30.511Z,76
2016-03-17T05:37:30.529Z,76
2016-03-17T05:38:30.548Z,80
2016-03-17T05:39:30.566Z,88
2016-03-17T05:40:30.584Z,92
2016-03-17T05:41:30.603Z,92
2016-03-17T05:42:30.621Z,96
2016-03-17T05:43:30.609Z,100
2016-03-17T05:44:30.642Z,104
2016-03-17T05:45:30.660Z,108
2016-03-17T05:46:30.662Z,112
2016-03-17T05:47:30.712Z,116
2016-03-17T05:48:30.528Z,120
2016-03-17T05:49:30.717Z,124
2016-03-17T05:50:30.736Z,124
2016-03-17T05:51:30.754Z,128
2016-03-17T05:52:30.757Z,132
2016-03-17T05:53:30.775Z,136
2016-03-17T05:54:30.794Z,136
2016-03-17T05:55:30.828Z,140
2016-03-17T05:56:30.814Z,148
2016-03-17T05:57:30.833Z,148
2016-03-17T05:58:30.882Z,152
2016-03-17T05:59:30.869Z,156
2016-03-17T06:00:30.888Z,160
2016-03-17T06:01:30.922Z,160
2016-03-17T06:02:30.925Z,164
2016-03-17T06:03:30.927Z,168
2016-03-17T06:04:30.946Z,172
2016-03-17T06:05:30.949Z,172
2016-03-17T06:06:30.952Z,176
2016-03-17T06:07:30.969Z,180
2016-03-17T06:08:30.988Z,184
2016-03-17T06:09:31.037Z,184
2016-03-17T06:10:31.040Z,188
2016-03-17T06:11:31.043Z,192
2016-03-17T06:12:31.045Z,196
2016-03-17T06:13:31.079Z,196
2016-03-17T06:14:31.081Z,196
2016-03-17T06:15:31.101Z,204
2016-03-17T06:16:31.134Z,204
2016-03-17T06:17:31.137Z,204
2016-03-17T06:18:31.140Z,208
2016-03-17T06:19:31.173Z,208
2016-03-17T06:20:31.176Z,212
2016-03-17T06:21:31.195Z,212
2016-03-17T06:22:31.213Z,216
2016-03-17T06:23:31.231Z,224
2016-03-17T06:24:31.249Z,224
2016-03-17T06:25:31.252Z,224
2016-03-17T06:26:31.254Z,228
2016-03-17T06:27:31.288Z,228
2016-03-17T06:28:31.291Z,232
2016-03-17T06:29:31.309Z,236
2016-03-17T06:30:31.328Z,236
2016-03-17T06:31:31.346Z,236
2016-03-17T06:32:31.349Z,240
2016-03-17T06:33:31.368Z,244
2016-03-17T06:34:31.402Z,244
2016-03-17T06:35:31.404Z,248
2016-03-17T06:36:31.438Z,248
2016-03-17T06:37:31.288Z,248
2016-03-17T06:38:31.470Z,252
2016-03-17T06:39:31.707Z,252
2016-03-17T06:40:32.812Z,256
2016-03-17T06:41:31.471Z,260
2016-03-17T06:42:31.364Z,256
2016-03-17T06:43:31.523Z,260
2016-03-17T06:44:31.525Z,260
2016-03-17T06:45:31.544Z,264
2016-03-17T06:46:31.563Z,268
2016-03-17T06:47:31.455Z,268
2016-03-17T06:48:31.599Z,268
2016-03-17T06:49:31.605Z,272
2016-03-17T06:50:31.624Z,272
2016-03-17T06:51:31.657Z,272
2016-03-17T06:52:31.660Z,276
2016-03-17T06:53:31.678Z,280
2016-03-17T06:54:31.680Z,280
2016-03-17T06:55:31.793Z,280
2016-03-17T06:56:31.764Z,280
2016-03-17T06:57:31.735Z,284
2016-03-17T06:58:31.770Z,284
2016-03-17T06:59:31.756Z,284
2016-03-17T07:00:31.791Z,288
2016-03-17T07:01:31.996Z,292
2016-03-17T07:02:31.811Z,292
2016-03-17T07:03:31.658Z,296
2016-03-17T07:04:31.832Z,300
2016-03-17T07:05:31.960Z,300
2016-03-17T07:06:31.947Z,304
2016-03-17T07:07:31.872Z,308
2016-03-17T07:08:32.015Z,312
2016-03-17T07:09:31.987Z,316
2016-03-17T07:10:31.943Z,320
2016-03-17T07:11:32.055Z,324
2016-03-17T07:12:31.964Z,324
2016-03-17T07:13:32.076Z,324
2016-03-17T07:14:32.000Z,328
2016-03-17T07:15:31.987Z,332
2016-03-17T07:16:32.036Z,340
2016-03-17T07:17:32.133Z,340
2016-03-17T07:18:32.058Z,340
2016-03-17T07:19:32.061Z,344
2016-03-17T07:20:32.079Z,344
2016-03-17T07:21:32.097Z,344
2016-03-17T07:22:32.099Z,348
2016-03-17T07:23:32.118Z,348
2016-03-17T07:24:32.152Z,348
2016-03-17T07:25:32.155Z,348
2016-03-17T07:26:32.189Z,348
2016-03-17T07:27:32.177Z,352
2016-03-17T07:28:32.210Z,356
2016-03-17T07:29:32.197Z,356
2016-03-17T07:30:32.246Z,356
2016-03-17T07:31:32.249Z,360
2016-03-17T07:32:32.112Z,360
2016-03-17T07:33:32.271Z,360
2016-03-17T07:34:32.288Z,364
2016-03-17T07:35:32.290Z,368
2016-03-17T07:36:32.340Z,368
2016-03-17T07:37:32.328Z,368
2016-03-17T07:38:32.378Z,364
2016-03-17T07:39:32.365Z,368
2016-03-17T07:40:32.398Z,368
2016-03-17T07:41:32.400Z,368
2016-03-17T07:42:32.434Z,372
2016-03-17T07:43:32.422Z,372
2016-03-17T07:44:32.472Z,372
2016-03-17T07:45:32.443Z,372
2016-03-17T07:46:32.492Z,376
2016-03-17T07:47:32.495Z,376
2016-03-17T07:48:32.639Z,376
2016-03-17T07:49:32.532Z,376
2016-03-17T07:50:32.550Z,380
2016-03-17T07:51:32.569Z,380
2016-03-17T07:52:32.571Z,380
2016-03-17T07:53:32.589Z,384
2016-03-17T07:54:32.607Z,384
2016-03-17T07:55:32.611Z,384
2016-03-17T07:56:32.629Z,388
2016-03-17T07:57:32.647Z,388
2016-03-17T07:58:32.666Z,392
2016-03-17T07:59:32.684Z,392
2016-03-17T08:00:32.687Z,392
2016-03-17T08:01:32.704Z,392
2016-03-17T08:02:32.723Z,392
2016-03-17T08:03:32.804Z,392
2016-03-17T08:04:32.744Z,396
2016-03-17T08:05:32.762Z,392
2016-03-17T08:06:32.629Z,392
2016-03-17T08:07:32.820Z,392
2016-03-17T08:08:32.822Z,396
2016-03-17T08:09:32.840Z,396
2016-03-17T08:10:32.843Z,396
2016-03-17T08:11:32.878Z,396
2016-03-17T08:12:32.881Z,396
2016-03-17T08:13:32.898Z,400
2016-03-17T08:14:32.917Z,400
2016-03-17T08:15:32.951Z,400
2016-03-17T08:16:32.953Z,404
2016-03-17T08:17:32.956Z,408
2016-03-17T08:18:33.068Z,404
2016-03-17T08:19:32.993Z,408
2016-03-17T08:20:33.042Z,408
2016-03-17T08:21:33.030Z,412
2016-03-17T08:22:33.047Z,412
2016-03-17T08:23:33.066Z,416
2016-03-17T08:24:33.084Z,416
2016-03-17T08:25:33.087Z,420
2016-03-17T08:26:33.152Z,416
2016-03-17T08:27:33.155Z,416
2016-03-17T08:28:33.142Z,416
2016-03-17T08:29:33.160Z,420
2016-03-17T08:30:33.179Z,420
2016-03-17T08:31:33.196Z,424
2016-03-17T08:32:33.215Z,424
2016-03-17T08:33:33.249Z,424
2016-03-17T08:34:33.237Z,428
2016-03-17T08:35:33.255Z,428
2016-03-17T08:36:33.274Z,428
2016-03-17T08:37:33.323Z,428
2016-03-17T08:38:33.341Z,428
2016-03-17T08:39:33.329Z,428
2016-03-17T08:40:33.346Z,428
2016-03-17T08:41:33.365Z,432
2016-03-17T08:42:33.383Z,436
2016-03-17T08:43:33.400Z,436
2016-03-17T08:44:33.420Z,436
2016-03-17T08:45:33.437Z,436
2016-03-17T08:46:33.440Z,440
2016-03-17T08:47:33.458Z,440
2016-03-17T08:48:33.477Z,440
2016-03-17T08:49:33.511Z,444
2016-03-17T08:50:33.514Z,444
2016-03-17T08:51:33.532Z,448
2016-03-17T08:52:33.550Z,444
2016-03-17T08:53:33.569Z,444
2016-03-17T08:54:33.587Z,448
2016-03-17T08:55:33.605Z,448
2016-03-17T08:56:33.608Z,452
2016-03-17T08:57:33.641Z,452
2016-03-17T08:58:33.644Z,452
2016-03-17T08:59:33.663Z,452
2016-03-17T09:00:33.682Z,452
2016-03-17T09:01:33.715Z,460
2016-03-17T09:02:33.733Z,460
2016-03-17T09:03:33.735Z,460
2016-03-17T09:04:33.755Z,468
2016-03-17T09:05:33.773Z,472
2016-03-17T09:06:33.796Z,472
2016-03-17T09:07:33.798Z,476
2016-03-17T09:08:33.833Z,484
2016-03-17T09:09:33.867Z,484
2016-03-17T09:10:33.870Z,488
2016-03-17T09:11:33.872Z,492
2016-03-17T09:12:33.906Z,496
2016-03-17T09:13:33.940Z,500
2016-03-17T09:14:33.974Z,500
2016-03-17T09:15:33.961Z,512
2016-03-17T09:16:33.995Z,512
2016-03-17T09:17:33.997Z,512
2016-03-17T09:18:34.047Z,520
2016-03-17T09:19:34.346Z,516
2016-03-17T09:20:34.052Z,520
2016-03-17T09:21:34.071Z,524
2016-03-17T09:22:34.229Z,528
2016-03-17T09:23:34.092Z,528
2016-03-17T09:24:34.094Z,536
2016-03-17T09:25:34.144Z,540
2016-03-17T09:26:34.150Z,544
2016-03-17T09:27:34.184Z,548
2016-03-17T09:28:34.187Z,552
2016-03-17T09:29:34.206Z,556
2016-03-17T09:30:34.223Z,564
2016-03-17T09:31:34.242Z,572
2016-03-17T09:32:34.261Z,572
2016-03-17T09:33:34.295Z,576
2016-03-17T09:34:34.297Z,580
2016-03-17T09:35:34.347Z,588
2016-03-17T09:36:34.319Z,592
2016-03-17T09:37:34.383Z,596
2016-03-17T09:38:34.370Z,600
2016-03-17T09:39:34.389Z,604
2016-03-17T09:40:34.408Z,604
2016-03-17T09:41:34.457Z,616
2016-03-17T09:42:34.288Z,616
2016-03-17T09:43:34.477Z,628
2016-03-17T09:44:34.480Z,636
2016-03-17T09:45:34.514Z,636
2016-03-17T09:46:34.516Z,644
2016-03-17T09:47:34.551Z,648
2016-03-17T09:48:34.554Z,652
2016-03-17T09:49:34.588Z,660
2016-03-17T09:50:34.606Z,664
2016-03-17T09:51:34.687Z,668
2016-03-17T09:52:34.627Z,676
2016-03-17T09:53:34.646Z,684
2016-03-17T09:54:34.680Z,688
2016-03-17T09:55:34.697Z,688
2016-03-17T09:56:34.715Z,688
2016-03-17T09:57:34.735Z,692
2016-03-17T09:58:34.768Z,696
2016-03-17T09:59:34.756Z,700
2016-03-17T10:00:34.773Z,708
2016-03-17T10:01:34.807Z,708
2016-03-17T10:02:34.842Z,720
2016-03-17T10:03:34.859Z,736
2016-03-17T10:04:34.878Z,744
2016-03-17T10:05:34.897Z,748
2016-03-17T10:06:34.914Z,744
2016-03-17T10:07:34.933Z,752
2016-03-17T10:08:34.967Z,760
2016-03-17T10:09:34.970Z,764
2016-03-17T10:10:34.988Z,772
2016-03-17T10:11:35.021Z,780
2016-03-17T10:12:35.041Z,792
2016-03-17T10:13:35.059Z,800
2016-03-17T10:14:35.076Z,804
2016-03-17T10:15:35.095Z,808
2016-03-17T10:16:35.113Z,808
2016-03-17T10:17:35.132Z,812
2016-03-17T10:18:35.165Z,820
2016-03-17T10:19:35.168Z,828
2016-03-17T10:20:35.202Z,836
2016-03-17T10:21:35.221Z,848
2016-03-17T10:22:35.254Z,856
2016-03-17T10:23:35.116Z,864
2016-03-17T10:24:35.275Z,868
2016-03-17T10:25:35.309Z,872
2016-03-17T10:26:35.328Z,884
2016-03-17T10:27:35.331Z,896
2016-03-17T10:28:35.224Z,896
2016-03-17T10:29:35.367Z,892
2016-03-17T10:30:35.401Z,896
2016-03-17T10:31:35.403Z,892
2016-03-17T10:32:35.423Z,888
2016-03-17T10:33:35.472Z,888
2016-03-17T10:34:35.458Z,904
2016-03-17T10:35:35.492Z,912
2016-03-17T10:36:35.511Z,924
2016-03-17T10:37:35.529Z,928
2016-03-17T10:38:35.564Z,932
2016-03-17T10:39:35.581Z,936
2016-03-17T10:40:35.600Z,952
2016-03-17T10:41:35.602Z,960
2016-03-17T10:42:35.636Z,960
2016-03-17T10:43:35.655Z,956
2016-03-17T10:44:35.673Z,952
2016-03-17T10:45:35.707Z,956
2016-03-17T10:46:35.710Z,964
2016-03-17T10:47:35.744Z,964
2016-03-17T10:48:35.763Z,976
2016-03-17T10:49:35.780Z,988
2016-03-17T10:50:35.830Z,996
2016-03-17T10:51:35.832Z,1012
2016-03-17T10:52:35.882Z,1012
2016-03-17T10:53:35.869Z,1012
2016-03-17T10:54:35.888Z,1008
2016-03-17T10:55:35.906Z,1004
2016-03-17T10:56:35.940Z,1008
2016-03-17T10:57:35.957Z,1004
2016-03-17T10:58:35.961Z,1004
2016-03-17T10:59:35.995Z,1016
2016-03-17T11:00:36.013Z,1028
2016-03-17T11:01:36.047Z,1036
2016-03-17T11:02:36.050Z,1036
2016-03-17T11:03:36.084Z,1040
2016-03-17T11:04:36.101Z,1052
2016-03-17T11:05:36.136Z,1060
2016-03-17T11:06:36.139Z,1060
2016-03-17T11:07:36.173Z,1044
2016-03-17T11:08:36.191Z,1036
2016-03-17T11:09:36.211Z,1044
2016-03-17T11:10:36.231Z,1048
2016-03-17T11:11:36.264Z,1052
2016-03-17T11:12:36.126Z,1064
2016-03-17T11:13:36.317Z,1072
2016-03-17T11:14:36.319Z,1072
2016-03-17T11:15:36.338Z,1076
2016-03-17T11:16:36.372Z,1080
2016-03-17T11:17:36.389Z,1084
2016-03-17T11:18:36.424Z,1084
2016-03-17T11:19:36.427Z,1092
2016-03-17T11:20:36.460Z,1080
2016-03-17T11:21:36.479Z,1076
2016-03-17T11:22:36.512Z,1084
2016-03-17T11:23:36.547Z,1080
2016-03-17T11:24:36.549Z,1084
2016-03-17T11:25:36.568Z,1092
2016-03-17T11:26:36.585Z,1100
2016-03-17T11:27:36.620Z,1108
2016-03-17T11:28:36.638Z,1112
2016-03-17T11:29:36.657Z,1100
2016-03-17T11:30:36.691Z,1104
2016-03-17T11:31:36.709Z,1112
2016-03-17T11:32:36.726Z,1112
2016-03-17T11:33:36.745Z,1120
2016-03-17T11:34:36.779Z,1132
2016-03-17T11:35:36.798Z,1132
2016-03-17T11:36:36.816Z,1132
2016-03-17T11:37:36.834Z,1128
2016-03-17T11:38:36.868Z,1128
2016-03-17T11:39:36.887Z,1136
2016-03-17T11:40:36.905Z,1136
2016-03-17T11:41:36.939Z,1128
2016-03-17T11:42:36.973Z,1128
2016-03-17T11:43:36.975Z,1128
2016-03-17T11:44:36.994Z,1132
2016-03-17T11:45:37.012Z,1136
2016-03-17T11:46:37.062Z,1132
2016-03-17T11:47:37.064Z,1128
2016-03-17T11:48:37.083Z,1120
2016-03-17T11:49:37.101Z,1120
2016-03-17T11:50:37.150Z,1112
2016-03-17T11:51:37.184Z,1112
2016-03-17T11:52:37.187Z,1120
2016-03-17T11:53:37.221Z,1116
2016-03-17T11:54:37.255Z,1120
2016-03-17T11:55:37.273Z,1132
2016-03-17T11:56:37.276Z,1136
2016-03-17T11:57:37.294Z,1128
2016-03-17T11:58:37.344Z,1116
2016-03-17T11:59:37.363Z,1112
2016-03-17T12:00:37.370Z,1104
2016-03-17T12:01:37.373Z,1100
2016-03-17T12:02:37.421Z,1096
2016-03-17T12:03:37.440Z,1096
2016-03-17T12:04:37.459Z,1100
2016-03-17T12:05:37.476Z,1100
2016-03-17T12:06:37.511Z,1092
2016-03-17T12:07:37.545Z,1080
2016-03-17T12:08:37.548Z,1064
2016-03-17T12:09:37.613Z,1040
2016-03-17T12:10:37.615Z,1028
2016-03-17T12:11:37.617Z,1020
2016-03-17T12:12:37.652Z,1016
2016-03-17T12:13:37.687Z,1008
2016-03-17T12:14:37.704Z,992
2016-03-17T12:15:37.722Z,984
2016-03-17T12:16:37.741Z,988
2016-03-17T12:17:37.837Z,988
2016-03-17T12:18:37.793Z,992
2016-03-17T12:19:37.874Z,984
2016-03-17T12:20:37.845Z,980
2016-03-17T12:21:37.864Z,980
2016-03-17T12:22:37.897Z,972
2016-03-17T12:23:37.916Z,972
2016-03-17T12:24:37.950Z,976
2016-03-17T12:25:37.952Z,980
2016-03-17T12:26:37.986Z,972
2016-03-17T12:27:38.005Z,964
2016-03-17T12:28:38.038Z,956
2016-03-17T12:29:38.073Z,952
2016-03-17T12:30:38.076Z,956
2016-03-17T12:31:38.125Z,964
2016-03-17T12:32:38.112Z,968
2016-03-17T12:33:38.162Z,968
2016-03-17T12:34:38.195Z,968
2016-03-17T12:35:38.198Z,964
2016-03-17T12:36:38.232Z,964
2016-03-17T12:37:38.235Z,960
2016-03-17T12:38:38.284Z,960
2016-03-17T12:39:38.287Z,960
2016-03-17T12:40:38.321Z,956
2016-03-17T12:41:38.339Z,952
2016-03-17T12:42:38.374Z,960
2016-03-17T12:43:38.385Z,964
2016-03-17T12:44:38.407Z,960
2016-03-17T12:45:38.413Z,960
2016-03-17T12:46:38.418Z,960
2016-03-17T12:47:38.440Z,964
2016-03-17T12:48:38.451Z,964
2016-03-17T12:49:38.496Z,964
2016-03-17T12:50:38.495Z,956
2016-03-17T12:51:38.509Z,948
2016-03-17T12:52:38.522Z,944
2016-03-17T12:53:38.554Z,932
2016-03-17T12:54:38.570Z,928
2016-03-17T12:55:38.602Z,924
2016-03-17T12:56:38.636Z,916
2016-03-17T12:57:38.651Z,920
2016-03-17T12:58:38.670Z,916
2016-03-17T12:59:38.703Z,920
2016-03-17T13:00:38.720Z,916
2016-03-17T13:01:38.737Z,916
2016-03-17T13:02:38.786Z,912
2016-03-17T13:03:38.788Z,908
2016-03-17T13:04:38.823Z,908
2016-03-17T13:05:38.841Z,904
2016-03-17T13:06:38.860Z,912
2016-03-17T13:07:38.884Z,920
2016-03-17T13:08:38.919Z,924
2016-03-17T13:09:38.936Z,928
2016-03-17T13:10:38.986Z,932
2016-03-17T13:11:38.989Z,932
2016-03-17T13:12:39.008Z,928
2016-03-17T13:13:39.042Z,916
2016-03-17T13:14:39.060Z,904
2016-03-17T13:15:39.094Z,900
2016-03-17T13:16:39.096Z,892
2016-03-17T13:17:39.130Z,896
2016-03-17T13:18:39.163Z,896
2016-03-17T13:19:39.229Z,892
2016-03-17T13:20:39.248Z,892
2016-03-17T13:21:39.235Z,896
2016-03-17T13:22:38.502Z,904
2016-03-17T13:23:39.318Z,904
2016-03-17T13:24:39.305Z,912
2016-03-17T13:25:39.324Z,916
2016-03-17T13:26:39.344Z,920
2016-03-17T13:27:39.377Z,928
2016-03-17T13:28:39.395Z,932
2016-03-17T13:29:39.460Z,940
2016-03-17T13:30:39.463Z,944
2016-03-17T13:31:39.482Z,952
2016-03-17T13:32:39.515Z,956
2016-03-17T13:33:39.549Z,956
2016-03-17T13:34:39.583Z,960
2016-03-17T13:35:39.585Z,964
2016-03-17T13:36:39.604Z,968
2016-03-17T13:37:39.638Z,972
2016-03-17T13:38:39.657Z,976
2016-03-17T13:39:39.675Z,972
2016-03-17T13:40:39.709Z,972
2016-03-17T13:41:39.727Z,968
2016-03-17T13:42:39.776Z,964
2016-03-17T13:43:39.764Z,972
2016-03-17T13:44:39.812Z,976
2016-03-17T13:45:39.832Z,988
2016-03-17T13:46:39.709Z,1004
2016-03-17T13:47:39.884Z,1016
2016-03-17T13:48:39.902Z,1028
2016-03-17T13:49:39.951Z,1040
2016-03-17T13:50:39.953Z,1048
2016-03-17T13:51:39.988Z,1056
2016-03-17T13:52:40.006Z,1060
2016-03-17T13:53:40.041Z,1064
2016-03-17T13:54:40.044Z,1064
2016-03-17T13:55:39.342Z,1068
2016-03-17T13:56:40.111Z,1072
2016-03-17T13:57:40.130Z,1092
2016-03-17T13:58:40.179Z,1104
2016-03-17T13:59:40.182Z,1108
2016-03-17T14:00:40.200Z,1108
2016-03-17T14:01:40.062Z,1116
2016-03-17T14:02:40.252Z,1116
2016-03-17T14:03:40.285Z,1124
2016-03-17T14:04:40.320Z,1132
2016-03-17T14:05:40.338Z,1144